Terminal Aerodrome Forecast
Issued by NWS

Home | Current Version | Previous Version | Text Only | Print | Product List | Glossary On
Versions: 1 2 3 4 5 6 7 8 9 10 11 12 13 14 15 16 17 18 19 20 21 22 23 24 25 26 27 28 29 30 31 32 33 34 35 36 37
000
FTUS45 KBOU 020653 AAA
TAFBJC
TAF AMD
KBJC 020653Z 0207/0306 VRB03KT P6SM BKN050
     FM020800 VRB04KT P6SM FEW050 SCT220
     FM021000 35005KT P6SM VCFG FEW020 FEW220
     FM021500 VRB05KT P6SM FEW060 SCT220
     FM022000 09006KT P6SM SCT090 SCT220
     FM030300 24005KT P6SM FEW100 SCT220=

USA.gov is the U.S. government's official web portal to all federal, state and local government web resources and services.